Gregoria Perez de Denis, Argentina
Current Conditions -  °F | °C
As of 5:00 PM on Saturday 25 Oct 2014 (Local Time) from SARE Reporting Station
Clear Clear  
Wind Chill: 93°   Ceiling: Unl
Heat Index: 93°   Visibility: 6mi
Dew Point: 61°   Wind: 6mph
Humidity: 34%   Direction: 140°SE
Pressure: 29.77"   Gusts: NA
Location:  28.43°S, 61.58°W
Report Text: SARE 252000Z 14005KT CAVOK 34/16 Q1008
Loading
Personal Weather Stations






























Interactive Weather Map New forecast layout! Learn more

10-Day Weather Forecast

Advertisements
Track Severe Weather on mobile